createdAt,value
2018-09-12T00:00:16.492Z,1017.05
2018-09-12T00:01:16.488Z,1017.07
2018-09-12T00:02:16.369Z,1017.05
2018-09-12T00:03:16.369Z,1017.04
2018-09-12T00:04:16.369Z,1017.04
2018-09-12T00:05:16.248Z,1017.05
2018-09-12T00:06:16.249Z,1017.03
2018-09-12T00:07:16.247Z,1017.00
2018-09-12T00:08:16.131Z,1017.04
2018-09-12T00:09:16.133Z,1017.00
2018-09-12T00:10:16.089Z,1016.98
2018-09-12T00:11:16.009Z,1016.95
2018-09-12T00:12:16.012Z,1016.97
2018-09-12T00:13:15.885Z,1016.98
2018-09-12T00:14:15.889Z,1016.94
2018-09-12T00:15:15.891Z,1016.92
2018-09-12T00:16:15.765Z,1016.91
2018-09-12T00:17:15.769Z,1016.93
2018-09-12T00:18:15.763Z,1016.95
2018-09-12T00:19:15.644Z,1016.92
2018-09-12T00:20:15.646Z,1016.89
2018-09-12T00:21:15.711Z,1016.86
2018-09-12T00:22:15.525Z,1016.88
2018-09-12T00:23:15.523Z,1016.88
2018-09-12T00:24:15.524Z,1016.89
2018-09-12T00:25:15.402Z,1016.86
2018-09-12T00:26:15.403Z,1016.85
2018-09-12T00:27:15.407Z,1016.89
2018-09-12T00:28:15.288Z,1016.87
2018-09-12T00:29:15.286Z,1016.84
2018-09-12T00:30:15.281Z,1016.84
2018-09-12T00:31:15.161Z,1016.84
2018-09-12T00:32:15.163Z,1016.84
2018-09-12T00:33:15.123Z,1016.88
2018-09-12T00:34:15.044Z,1016.88
2018-09-12T00:35:15.047Z,1016.93
2018-09-12T00:36:14.923Z,1016.90
2018-09-12T00:37:14.927Z,1016.86
2018-09-12T00:38:14.919Z,1016.90
2018-09-12T00:39:14.799Z,1016.90
2018-09-12T00:40:14.799Z,1016.87
2018-09-12T00:41:14.800Z,1016.88
2018-09-12T00:42:14.678Z,1016.86
2018-09-12T00:43:14.678Z,1016.88
2018-09-12T00:44:14.681Z,1016.86
2018-09-12T00:45:14.558Z,1016.87
2018-09-12T00:46:14.559Z,1016.87
2018-09-12T00:47:14.559Z,1016.84
2018-09-12T00:48:14.442Z,1016.84
2018-09-12T00:49:14.439Z,1016.73
2018-09-12T00:50:14.439Z,1016.84
2018-09-12T00:51:14.318Z,1016.81
2018-09-12T00:52:14.316Z,1016.77
2018-09-12T00:53:14.318Z,1016.76
2018-09-12T00:54:14.196Z,1016.75
2018-09-12T00:55:14.197Z,1016.73
2018-09-12T00:56:14.196Z,1016.73
2018-09-12T00:57:14.076Z,1016.71
2018-09-12T00:58:14.078Z,1016.74
2018-09-12T00:59:14.040Z,1016.72
2018-09-12T01:00:13.960Z,1016.71
2018-09-12T01:01:13.954Z,1016.72
2018-09-12T01:02:13.835Z,1016.70
2018-09-12T01:03:13.839Z,1016.70
2018-09-12T01:04:13.833Z,1016.64
2018-09-12T01:05:13.716Z,1016.64
2018-09-12T01:06:13.713Z,1016.67
2018-09-12T01:07:13.715Z,1016.63
2018-09-12T01:08:13.595Z,1016.64
2018-09-12T01:09:13.592Z,1016.65
2018-09-12T01:10:13.593Z,1016.61
2018-09-12T01:11:13.481Z,1016.59
2018-09-12T01:12:13.482Z,1016.60
2018-09-12T01:13:13.472Z,1016.57
2018-09-12T01:14:13.353Z,1016.57
2018-09-12T01:15:13.350Z,1016.60
2018-09-12T01:16:13.351Z,1016.59
2018-09-12T01:17:13.230Z,1016.59
2018-09-12T01:18:13.234Z,1016.57
2018-09-12T01:19:13.229Z,1016.57
2018-09-12T01:20:13.115Z,1016.57
2018-09-12T01:21:13.110Z,1016.59
2018-09-12T01:22:13.077Z,1016.55
2018-09-12T01:23:12.989Z,1016.53
2018-09-12T01:24:12.993Z,1016.52
2018-09-12T01:25:12.869Z,1016.49
2018-09-12T01:26:12.871Z,1016.51
2018-09-12T01:27:12.870Z,1016.54
2018-09-12T01:28:12.750Z,1016.53
2018-09-12T01:29:12.748Z,1016.54
2018-09-12T01:30:12.752Z,1016.57
2018-09-12T01:31:12.629Z,1016.56
2018-09-12T01:32:12.626Z,1016.52
2018-09-12T01:33:12.629Z,1016.53
2018-09-12T01:34:12.510Z,1016.53
2018-09-12T01:35:12.508Z,1016.50
2018-09-12T01:36:12.508Z,1016.47
2018-09-12T01:37:12.388Z,1016.48
2018-09-12T01:38:12.387Z,1016.47
2018-09-12T01:39:12.389Z,1016.46
2018-09-12T01:40:12.265Z,1016.44
2018-09-12T01:41:12.266Z,1016.41
2018-09-12T01:42:12.269Z,1016.42
2018-09-12T01:43:12.144Z,1016.42
2018-09-12T01:44:12.147Z,1016.41
2018-09-12T01:45:12.148Z,1016.44
2018-09-12T01:46:12.027Z,1016.42
2018-09-12T01:47:12.024Z,1016.42
2018-09-12T01:48:12.023Z,1016.41
2018-09-12T01:49:11.904Z,1016.43
2018-09-12T01:50:11.904Z,1016.41
2018-09-12T01:51:11.785Z,1016.41
2018-09-12T01:52:11.785Z,1016.39
2018-09-12T01:53:11.839Z,1016.36
2018-09-12T01:54:11.665Z,1016.35
2018-09-12T01:55:11.664Z,1016.32
2018-09-12T01:56:11.665Z,1016.30
2018-09-12T01:57:11.550Z,1016.32
2018-09-12T01:58:11.545Z,1016.29
2018-09-12T01:59:11.544Z,1016.31
2018-09-12T02:00:11.424Z,1016.34
2018-09-12T02:01:11.423Z,1016.37
2018-09-12T02:02:11.423Z,1016.35
2018-09-12T02:03:11.302Z,1016.40
2018-09-12T02:04:11.303Z,1016.37
2018-09-12T02:05:11.307Z,1016.38
2018-09-12T02:06:11.181Z,1016.40
2018-09-12T02:07:11.181Z,1016.40
2018-09-12T02:08:11.147Z,1016.35
2018-09-12T02:09:11.062Z,1016.28
2018-09-12T02:10:11.064Z,1016.35
2018-09-12T02:11:10.941Z,1016.30
2018-09-12T02:12:10.941Z,1016.29
2018-09-12T02:13:10.938Z,1016.27
2018-09-12T02:14:10.822Z,1016.28
2018-09-12T02:15:10.819Z,1016.26
2018-09-12T02:16:10.822Z,1016.28
2018-09-12T02:17:10.703Z,1016.27
2018-09-12T02:18:10.698Z,1016.23
2018-09-12T02:19:10.699Z,1016.28
2018-09-12T02:20:10.578Z,1016.27
2018-09-12T02:21:10.577Z,1016.25
2018-09-12T02:22:10.577Z,1016.26
2018-09-12T02:23:10.456Z,1016.26
2018-09-12T02:24:10.460Z,1016.23
2018-09-12T02:25:10.455Z,1016.29
2018-09-12T02:26:10.339Z,1016.24
2018-09-12T02:27:10.341Z,1016.21
2018-09-12T02:28:10.299Z,1016.17
2018-09-12T02:29:10.215Z,1016.21
2018-09-12T02:30:10.219Z,1016.17
2018-09-12T02:31:10.099Z,1016.16
2018-09-12T02:32:10.095Z,1016.13
2018-09-12T02:33:10.094Z,1016.15
2018-09-12T02:34:09.977Z,1016.11
2018-09-12T02:35:09.975Z,1016.11
2018-09-12T02:36:09.975Z,1016.08
2018-09-12T02:37:09.858Z,1016.11
2018-09-12T02:38:09.855Z,1016.13
2018-09-12T02:39:09.854Z,1016.12
2018-09-12T02:40:09.741Z,1016.11
2018-09-12T02:41:09.739Z,1016.09
2018-09-12T02:42:09.731Z,1016.08
2018-09-12T02:43:09.614Z,1016.11
2018-09-12T02:44:09.617Z,1016.06
2018-09-12T02:45:09.616Z,1016.10
2018-09-12T02:46:09.492Z,1016.10
2018-09-12T02:47:09.493Z,1016.09
2018-09-12T02:48:09.455Z,1016.10
2018-09-12T02:49:09.371Z,1016.10
2018-09-12T02:50:09.371Z,1016.12
2018-09-12T02:51:09.252Z,1016.10
2018-09-12T02:52:09.256Z,1016.13
2018-09-12T02:53:09.257Z,1016.13
2018-09-12T02:54:09.132Z,1016.14
2018-09-12T02:55:09.134Z,1016.14
2018-09-12T02:56:09.130Z,1016.14
2018-09-12T02:57:09.014Z,1016.11
2018-09-12T02:58:09.011Z,1016.10
2018-09-12T02:59:09.009Z,1016.09
2018-09-12T03:00:08.889Z,1016.10
2018-09-12T03:01:08.890Z,1016.04
2018-09-12T03:02:08.889Z,1016.08
2018-09-12T03:03:08.775Z,1016.03
2018-09-12T03:04:08.779Z,1015.98
2018-09-12T03:05:08.767Z,1015.95
2018-09-12T03:06:08.648Z,1015.95
2018-09-12T03:07:08.649Z,1015.93
2018-09-12T03:08:08.528Z,1015.93
2018-09-12T03:09:08.527Z,1015.95
2018-09-12T03:10:08.528Z,1015.91
2018-09-12T03:11:08.408Z,1015.93
2018-09-12T03:12:08.412Z,1015.90
2018-09-12T03:13:08.426Z,1015.90
2018-09-12T03:14:08.288Z,1015.91
2018-09-12T03:15:08.288Z,1015.85
2018-09-12T03:16:08.289Z,1015.89
2018-09-12T03:17:08.170Z,1015.80
2018-09-12T03:18:08.167Z,1015.86
2018-09-12T03:19:08.164Z,1015.86
2018-09-12T03:20:08.051Z,1015.84
2018-09-12T03:21:08.284Z,1015.82
2018-09-12T03:22:08.044Z,1015.81
2018-09-12T03:23:07.924Z,1015.79
2018-09-12T03:24:07.927Z,1015.78
2018-09-12T03:25:07.804Z,1015.75
2018-09-12T03:26:07.810Z,1015.76
2018-09-12T03:27:07.804Z,1015.73
2018-09-12T03:28:07.765Z,1015.72
2018-09-12T03:29:07.685Z,1015.74
2018-09-12T03:30:07.682Z,1015.74
2018-09-12T03:31:07.565Z,1015.72
2018-09-12T03:32:07.569Z,1015.75
2018-09-12T03:33:07.563Z,1015.69
2018-09-12T03:34:07.444Z,1015.75
2018-09-12T03:35:07.444Z,1015.73
2018-09-12T03:36:07.444Z,1015.72
2018-09-12T03:37:07.325Z,1015.72
2018-09-12T03:38:07.321Z,1015.73
2018-09-12T03:39:07.324Z,1015.77
2018-09-12T03:40:07.202Z,1015.74
2018-09-12T03:41:07.202Z,1015.72
2018-09-12T03:42:07.168Z,1015.74
2018-09-12T03:43:07.083Z,1015.72
2018-09-12T03:44:07.081Z,1015.72
2018-09-12T03:45:06.965Z,1015.70
2018-09-12T03:46:06.962Z,1015.68
2018-09-12T03:47:06.964Z,1015.71
2018-09-12T03:48:06.875Z,1015.70
2018-09-12T03:49:06.839Z,1015.71
2018-09-12T03:50:06.841Z,1015.73
2018-09-12T03:51:06.726Z,1015.74
2018-09-12T03:52:06.723Z,1015.76
2018-09-12T03:53:06.721Z,1015.76
2018-09-12T03:54:06.598Z,1015.77
2018-09-12T03:55:06.605Z,1015.80
2018-09-12T03:56:06.598Z,1015.82
2018-09-12T03:57:06.480Z,1015.88
2018-09-12T03:58:06.479Z,1015.85
2018-09-12T03:59:06.357Z,1015.85
2018-09-12T04:00:06.357Z,1015.82
2018-09-12T04:01:06.357Z,1015.83
2018-09-12T04:02:06.238Z,1015.86
2018-09-12T04:03:06.234Z,1015.82
2018-09-12T04:04:06.236Z,1015.89
2018-09-12T04:05:06.117Z,1015.88
2018-09-12T04:06:06.118Z,1015.91
2018-09-12T04:07:06.116Z,1015.89
2018-09-12T04:08:05.997Z,1015.86
2018-09-12T04:09:05.998Z,1015.86
2018-09-12T04:10:05.999Z,1015.89
2018-09-12T04:11:05.875Z,1015.91
2018-09-12T04:12:05.876Z,1015.90
2018-09-12T04:13:05.876Z,1015.93
2018-09-12T04:14:05.755Z,1015.91
2018-09-12T04:15:05.754Z,1015.84
2018-09-12T04:16:05.640Z,1015.86
2018-09-12T04:17:05.638Z,1015.91
2018-09-12T04:18:05.638Z,1015.89
2018-09-12T04:19:05.520Z,1015.87
2018-09-12T04:20:05.513Z,1015.85
2018-09-12T04:21:05.512Z,1015.84
2018-09-12T04:22:05.403Z,1015.88
2018-09-12T04:23:05.393Z,1015.85
2018-09-12T04:24:05.447Z,1015.84
2018-09-12T04:25:05.273Z,1015.83
2018-09-12T04:26:05.271Z,1015.82
2018-09-12T04:27:05.276Z,1015.85
2018-09-12T04:28:05.152Z,1015.85
2018-09-12T04:29:05.160Z,1015.87
2018-09-12T04:30:05.153Z,1015.85
2018-09-12T04:31:05.032Z,1015.83
2018-09-12T04:32:05.031Z,1015.86
2018-09-12T04:33:04.918Z,1015.91
2018-09-12T04:34:04.925Z,1015.95
2018-09-12T04:35:04.913Z,1015.94
2018-09-12T04:36:04.790Z,1015.97
2018-09-12T04:37:04.798Z,1015.97
2018-09-12T04:38:04.794Z,1015.97
2018-09-12T04:39:04.669Z,1016.02
2018-09-12T04:40:04.667Z,1015.95
2018-09-12T04:41:04.671Z,1015.96
2018-09-12T04:42:04.549Z,1015.97
2018-09-12T04:43:04.550Z,1015.95
2018-09-12T04:44:04.547Z,1015.93
2018-09-12T04:45:04.429Z,1015.96
2018-09-12T04:46:04.430Z,1015.92
2018-09-12T04:47:04.437Z,1015.91
2018-09-12T04:48:04.307Z,1015.90
2018-09-12T04:49:04.310Z,1015.94
2018-09-12T04:50:04.190Z,1015.89
2018-09-12T04:51:04.189Z,1015.91
2018-09-12T04:52:04.188Z,1015.92
2018-09-12T04:53:04.070Z,1015.93
2018-09-12T04:54:04.068Z,1015.91
2018-09-12T04:55:04.067Z,1015.93
2018-09-12T04:56:03.946Z,1015.96
2018-09-12T04:57:03.945Z,1015.99
2018-09-12T04:58:03.946Z,1016.01
2018-09-12T04:59:03.824Z,1016.01
2018-09-12T05:00:03.825Z,1016.00
2018-09-12T05:01:03.825Z,1016.01
2018-09-12T05:02:03.711Z,1016.03
2018-09-12T05:03:03.702Z,1016.04
2018-09-12T05:04:03.704Z,1016.02
2018-09-12T05:05:03.582Z,1015.98
2018-09-12T05:06:03.583Z,1015.99
2018-09-12T05:07:03.464Z,1015.96
2018-09-12T05:08:03.464Z,1015.97
2018-09-12T05:09:03.461Z,1016.01
2018-09-12T05:10:03.412Z,1015.96
2018-09-12T05:11:03.343Z,1015.94
2018-09-12T05:12:03.341Z,1015.94
2018-09-12T05:13:03.222Z,1015.96
2018-09-12T05:14:03.219Z,1016.01
2018-09-12T05:15:03.222Z,1015.96
2018-09-12T05:16:03.189Z,1015.94
2018-09-12T05:17:03.100Z,1015.95
2018-09-12T05:18:03.101Z,1015.96
2018-09-12T05:19:02.979Z,1015.94
2018-09-12T05:20:02.982Z,1015.95
2018-09-12T05:21:02.945Z,1015.93
2018-09-12T05:22:02.859Z,1015.93
2018-09-12T05:23:02.859Z,1015.92
2018-09-12T05:24:02.743Z,1015.94
2018-09-12T05:25:02.743Z,1015.96
2018-09-12T05:26:02.737Z,1015.94
2018-09-12T05:27:02.620Z,1015.98
2018-09-12T05:28:02.618Z,1015.97
2018-09-12T05:29:02.617Z,1015.96
2018-09-12T05:30:02.497Z,1015.98
2018-09-12T05:31:02.498Z,1015.98
2018-09-12T05:32:02.499Z,1015.99
2018-09-12T05:33:02.391Z,1015.99
2018-09-12T05:34:02.383Z,1016.00
2018-09-12T05:35:02.381Z,1016.00
2018-09-12T05:36:02.256Z,1016.08
2018-09-12T05:37:02.256Z,1016.09
2018-09-12T05:38:02.218Z,1016.12
2018-09-12T05:39:02.140Z,1016.09
2018-09-12T05:40:02.138Z,1016.13
2018-09-12T05:41:02.015Z,1016.11
2018-09-12T05:42:02.024Z,1016.14
2018-09-12T05:43:02.016Z,1016.15
2018-09-12T05:44:01.895Z,1016.17
2018-09-12T05:45:01.893Z,1016.19
2018-09-12T05:46:01.894Z,1016.21
2018-09-12T05:47:01.794Z,1016.18
2018-09-12T05:48:01.778Z,1016.21
2018-09-12T05:49:01.774Z,1016.19
2018-09-12T05:50:01.679Z,1016.22
2018-09-12T05:51:01.656Z,1016.23
2018-09-12T05:52:01.655Z,1016.25
2018-09-12T05:53:01.532Z,1016.29
2018-09-12T05:54:01.533Z,1016.31
2018-09-12T05:55:01.532Z,1016.30
2018-09-12T05:56:01.418Z,1016.30
2018-09-12T05:57:01.412Z,1016.31
2018-09-12T05:58:01.293Z,1016.36
2018-09-12T05:59:01.291Z,1016.35
2018-09-12T06:00:01.293Z,1016.29
2018-09-12T06:01:01.170Z,1016.30
2018-09-12T06:02:01.170Z,1016.31
2018-09-12T06:03:01.170Z,1016.30
2018-09-12T06:04:01.050Z,1016.34
2018-09-12T06:05:01.049Z,1016.31
2018-09-12T06:06:01.050Z,1016.36
2018-09-12T06:07:01.117Z,1016.35
2018-09-12T06:08:00.929Z,1016.35
2018-09-12T06:09:00.933Z,1016.28
2018-09-12T06:10:00.811Z,1016.28
2018-09-12T06:11:00.810Z,1016.29
2018-09-12T06:12:00.770Z,1016.28
2018-09-12T06:13:00.691Z,1016.23
2018-09-12T06:14:00.712Z,1016.30
2018-09-12T06:15:00.568Z,1016.26
2018-09-12T06:16:00.567Z,1016.31
2018-09-12T06:17:00.568Z,1016.36
2018-09-12T06:18:00.447Z,1016.36
2018-09-12T06:19:00.450Z,1016.36
2018-09-12T06:20:00.446Z,1016.35
2018-09-12T06:21:00.327Z,1016.33
2018-09-12T06:22:00.326Z,1016.32
2018-09-12T06:23:00.324Z,1016.31
2018-09-12T06:24:00.205Z,1016.30
2018-09-12T06:25:00.206Z,1016.27
2018-09-12T06:26:00.206Z,1016.29
2018-09-12T06:27:00.085Z,1016.27
2018-09-12T06:28:00.084Z,1016.31
2018-09-12T06:29:00.087Z,1016.28
2018-09-12T06:29:59.965Z,1016.30
2018-09-12T06:30:59.971Z,1016.29
2018-09-12T06:31:59.927Z,1016.34
2018-09-12T06:32:59.845Z,1016.37
2018-09-12T06:33:59.847Z,1016.36
2018-09-12T06:34:59.722Z,1016.34
2018-09-12T06:35:59.723Z,1016.36
2018-09-12T06:36:59.724Z,1016.38
2018-09-12T06:37:59.606Z,1016.40
2018-09-12T06:38:59.600Z,1016.38
2018-09-12T06:39:59.605Z,1016.37
2018-09-12T06:40:59.484Z,1016.42
2018-09-12T06:41:59.484Z,1016.40
2018-09-12T06:42:59.480Z,1016.44
2018-09-12T06:43:59.367Z,1016.45
2018-09-12T06:44:59.366Z,1016.48
2018-09-12T06:45:59.358Z,1016.52
2018-09-12T06:46:59.241Z,1016.55
2018-09-12T06:47:59.239Z,1016.50
2018-09-12T06:48:59.239Z,1016.53
2018-09-12T06:49:59.123Z,1016.54
2018-09-12T06:50:59.123Z,1016.53
2018-09-12T06:51:59.117Z,1016.52
2018-09-12T06:52:58.997Z,1016.59
2018-09-12T06:53:58.999Z,1016.55
2018-09-12T06:54:58.878Z,1016.57
2018-09-12T06:55:58.879Z,1016.54
2018-09-12T06:56:58.885Z,1016.57
2018-09-12T06:57:58.762Z,1016.55
2018-09-12T06:58:58.755Z,1016.55
2018-09-12T06:59:58.763Z,1016.53
2018-09-12T07:00:58.658Z,1016.59
2018-09-12T07:01:58.640Z,1016.58
2018-09-12T07:02:58.644Z,1016.61
2018-09-12T07:03:58.520Z,1016.57
2018-09-12T07:04:58.517Z,1016.59
2018-09-12T07:05:58.516Z,1016.61
2018-09-12T07:06:58.397Z,1016.59
2018-09-12T07:07:58.397Z,1016.65
2018-09-12T07:08:58.393Z,1016.63
2018-09-12T07:09:58.275Z,1016.63
2018-09-12T07:10:58.274Z,1016.62
2018-09-12T07:11:58.274Z,1016.64
2018-09-12T07:12:58.156Z,1016.65
2018-09-12T07:13:58.156Z,1016.65
2018-09-12T07:14:58.153Z,1016.60
2018-09-12T07:15:58.033Z,1016.64
2018-09-12T07:16:58.039Z,1016.62
2018-09-12T07:17:57.994Z,1016.68
2018-09-12T07:18:57.914Z,1016.67
2018-09-12T07:19:57.911Z,1016.68
2018-09-12T07:20:57.873Z,1016.65
2018-09-12T07:21:57.794Z,1016.68
2018-09-12T07:22:57.790Z,1016.64
2018-09-12T07:23:57.672Z,1016.69
2018-09-12T07:24:57.670Z,1016.69
2018-09-12T07:25:57.670Z,1016.71
2018-09-12T07:26:57.552Z,1016.75
2018-09-12T07:27:57.553Z,1016.70
2018-09-12T07:28:57.550Z,1016.70
2018-09-12T07:29:57.433Z,1016.74
2018-09-12T07:30:57.440Z,1016.74
2018-09-12T07:31:57.431Z,1016.67
2018-09-12T07:32:57.307Z,1016.71
2018-09-12T07:33:57.325Z,1016.69
2018-09-12T07:34:57.308Z,1016.70
2018-09-12T07:35:57.188Z,1016.73
2018-09-12T07:36:57.187Z,1016.73
2018-09-12T07:37:57.188Z,1016.72
2018-09-12T07:38:57.070Z,1016.75
2018-09-12T07:39:57.070Z,1016.75
2018-09-12T07:40:57.068Z,1016.77
2018-09-12T07:41:56.948Z,1016.73
2018-09-12T07:42:56.946Z,1016.77
2018-09-12T07:43:56.946Z,1016.75
2018-09-12T07:44:56.830Z,1016.75
2018-09-12T07:45:56.827Z,1016.75
2018-09-12T07:46:56.825Z,1016.77
2018-09-12T07:47:56.707Z,1016.74
2018-09-12T07:48:56.727Z,1016.70
2018-09-12T07:49:56.669Z,1016.64
2018-09-12T07:50:56.587Z,1016.65
2018-09-12T07:51:56.586Z,1016.67
2018-09-12T07:52:56.466Z,1016.66
2018-09-12T07:53:56.465Z,1016.71
2018-09-12T07:54:56.469Z,1016.67
2018-09-12T07:55:56.385Z,1016.68
2018-09-12T07:56:56.349Z,1016.66
2018-09-12T07:57:56.343Z,1016.67
2018-09-12T07:58:56.227Z,1016.71
2018-09-12T07:59:56.279Z,1016.68
2018-09-12T08:00:56.224Z,1016.71
2018-09-12T08:01:56.103Z,1016.64
2018-09-12T08:02:56.104Z,1016.65
2018-09-12T08:03:56.104Z,1016.68
2018-09-12T08:04:56.009Z,1016.65
2018-09-12T08:05:55.983Z,1016.66
2018-09-12T08:06:55.983Z,1016.69
2018-09-12T08:07:55.862Z,1016.66
2018-09-12T08:08:55.861Z,1016.66
2018-09-12T08:09:55.868Z,1016.64
2018-09-12T08:10:55.741Z,1016.67
2018-09-12T08:11:55.741Z,1016.62
2018-09-12T08:12:55.742Z,1016.60
2018-09-12T08:13:55.620Z,1016.59
2018-09-12T08:14:55.621Z,1016.57
2018-09-12T08:15:55.621Z,1016.60
2018-09-12T08:16:55.536Z,1016.57
2018-09-12T08:17:55.503Z,1016.59
2018-09-12T08:18:55.553Z,1016.59
2018-09-12T08:19:55.381Z,1016.58
2018-09-12T08:20:55.378Z,1016.60
2018-09-12T08:21:55.382Z,1016.64
2018-09-12T08:22:55.259Z,1016.65
2018-09-12T08:23:55.257Z,1016.64
2018-09-12T08:24:55.261Z,1016.70
2018-09-12T08:25:55.137Z,1016.71
2018-09-12T08:26:55.145Z,1016.76
2018-09-12T08:27:55.137Z,1016.80
2018-09-12T08:28:55.017Z,1016.71
2018-09-12T08:29:55.022Z,1016.73
2018-09-12T08:30:55.017Z,1016.69
2018-09-12T08:31:54.898Z,1016.77
2018-09-12T08:32:54.898Z,1016.75
2018-09-12T08:33:54.899Z,1016.75
2018-09-12T08:34:54.777Z,1016.81
2018-09-12T08:35:54.780Z,1016.81
2018-09-12T08:36:54.775Z,1016.80
2018-09-12T08:37:54.656Z,1016.79
2018-09-12T08:38:54.654Z,1016.77
2018-09-12T08:39:54.654Z,1016.74
2018-09-12T08:40:54.535Z,1016.79
2018-09-12T08:41:54.533Z,1016.72
2018-09-12T08:42:54.533Z,1016.73
2018-09-12T08:43:54.416Z,1016.77
2018-09-12T08:44:54.414Z,1016.79
2018-09-12T08:45:54.415Z,1016.79
2018-09-12T08:46:54.294Z,1016.76
2018-09-12T08:47:54.345Z,1016.83
2018-09-12T08:48:54.293Z,1016.77
2018-09-12T08:49:54.178Z,1016.76
2018-09-12T08:50:54.176Z,1016.74
2018-09-12T08:51:54.172Z,1016.73
2018-09-12T08:52:54.065Z,1016.71
2018-09-12T08:53:54.052Z,1016.68
2018-09-12T08:54:54.052Z,1016.72
2018-09-12T08:55:53.931Z,1016.72
2018-09-12T08:56:53.936Z,1016.71
2018-09-12T08:57:53.936Z,1016.69
2018-09-12T08:58:53.892Z,1016.64
2018-09-12T08:59:53.816Z,1016.66
2018-09-12T09:00:53.810Z,1016.65
2018-09-12T09:01:53.817Z,1016.62
2018-09-12T09:02:53.689Z,1016.63
2018-09-12T09:03:53.700Z,1016.62
2018-09-12T09:04:53.693Z,1016.61
2018-09-12T09:05:53.569Z,1016.59
2018-09-12T09:06:53.570Z,1016.61
2018-09-12T09:07:53.568Z,1016.62
2018-09-12T09:08:53.449Z,1016.65
2018-09-12T09:09:53.447Z,1016.65
2018-09-12T09:10:53.447Z,1016.65
2018-09-12T09:11:53.326Z,1016.63
2018-09-12T09:12:53.329Z,1016.65
2018-09-12T09:13:53.326Z,1016.63
2018-09-12T09:14:53.205Z,1016.59
2018-09-12T09:15:53.215Z,1016.63
2018-09-12T09:16:53.206Z,1016.63
2018-09-12T09:17:53.086Z,1016.65
2018-09-12T09:18:53.087Z,1016.72
2018-09-12T09:19:53.086Z,1016.64
2018-09-12T09:20:52.966Z,1016.71
2018-09-12T09:21:52.968Z,1016.72
2018-09-12T09:22:52.967Z,1016.72
2018-09-12T09:23:52.843Z,1016.73
2018-09-12T09:24:52.842Z,1016.73
2018-09-12T09:25:52.844Z,1016.76
2018-09-12T09:26:52.844Z,1016.75
2018-09-12T09:27:52.723Z,1016.73
2018-09-12T09:28:52.721Z,1016.74
2018-09-12T09:29:52.724Z,1016.78
2018-09-12T09:30:52.603Z,1016.76
2018-09-12T09:31:52.600Z,1016.73
2018-09-12T09:32:52.604Z,1016.75
2018-09-12T09:33:52.485Z,1016.82
2018-09-12T09:34:52.508Z,1016.84
2018-09-12T09:35:52.481Z,1016.81
2018-09-12T09:36:52.362Z,1016.79
2018-09-12T09:37:52.360Z,1016.74
2018-09-12T09:38:52.358Z,1016.75
2018-09-12T09:39:52.238Z,1016.72
2018-09-12T09:40:52.240Z,1016.74
2018-09-12T09:41:52.241Z,1016.78
2018-09-12T09:42:52.140Z,1016.85
2018-09-12T09:43:52.137Z,1016.87
2018-09-12T09:44:52.118Z,1016.88
2018-09-12T09:45:51.997Z,1016.89
2018-09-12T09:46:51.996Z,1016.86
2018-09-12T09:47:52.037Z,1016.86
2018-09-12T09:48:51.961Z,1016.91
2018-09-12T09:49:51.879Z,1016.83
2018-09-12T09:50:51.876Z,1016.86
2018-09-12T09:51:51.880Z,1016.86
2018-09-12T09:52:51.759Z,1016.95
2018-09-12T09:53:51.756Z,1016.90
2018-09-12T09:54:51.876Z,1016.94
2018-09-12T09:55:51.642Z,1016.91
2018-09-12T09:56:51.635Z,1016.92
2018-09-12T09:57:51.636Z,1016.92
2018-09-12T09:58:51.515Z,1016.90
2018-09-12T09:59:51.515Z,1016.90
2018-09-12T10:00:51.518Z,1016.97
2018-09-12T10:01:51.397Z,1016.98
2018-09-12T10:02:51.393Z,1016.98
2018-09-12T10:03:51.394Z,1016.89
2018-09-12T10:04:51.275Z,1016.97
2018-09-12T10:05:51.331Z,1016.93
2018-09-12T10:06:51.272Z,1017.02
2018-09-12T10:07:51.153Z,1016.94
2018-09-12T10:08:51.154Z,1016.95
2018-09-12T10:09:51.151Z,1016.95
2018-09-12T10:10:51.150Z,1016.92
2018-09-12T10:11:51.063Z,1016.92
2018-09-12T10:12:51.030Z,1016.96
2018-09-12T10:13:51.031Z,1016.94
2018-09-12T10:14:50.908Z,1016.91
2018-09-12T10:15:50.912Z,1016.95
2018-09-12T10:16:50.912Z,1017.03
2018-09-12T10:17:50.789Z,1016.94
2018-09-12T10:18:50.790Z,1016.95
2018-09-12T10:19:50.789Z,1016.99
2018-09-12T10:20:50.673Z,1016.94
2018-09-12T10:21:50.669Z,1016.98
2018-09-12T10:22:50.787Z,1016.98
2018-09-12T10:23:50.666Z,1016.99
2018-09-12T10:24:50.672Z,1016.99
2018-09-12T10:25:50.668Z,1016.98
2018-09-12T10:26:50.431Z,1017.02
2018-09-12T10:27:50.427Z,1017.03
2018-09-12T10:28:50.428Z,1017.00
2018-09-12T10:29:50.306Z,1016.96
2018-09-12T10:30:50.310Z,1016.96
2018-09-12T10:31:50.311Z,1016.95
2018-09-12T10:32:50.310Z,1016.96
2018-09-12T10:33:50.189Z,1017.01
2018-09-12T10:34:50.192Z,1017.01
2018-09-12T10:35:50.187Z,1017.01
2018-09-12T10:36:50.065Z,1017.03
2018-09-12T10:37:50.066Z,1016.97
2018-09-12T10:38:50.066Z,1016.97
2018-09-12T10:39:49.946Z,1016.98
2018-09-12T10:40:49.998Z,1016.93
2018-09-12T10:41:49.945Z,1016.96
2018-09-12T10:42:49.832Z,1016.92
2018-09-12T10:43:49.823Z,1016.95
2018-09-12T10:44:49.830Z,1016.95
2018-09-12T10:45:49.710Z,1016.93
2018-09-12T10:46:49.707Z,1016.88
2018-09-12T10:47:49.705Z,1016.91
2018-09-12T10:48:49.588Z,1016.90
2018-09-12T10:49:49.588Z,1016.91
2018-09-12T10:50:49.581Z,1016.92
2018-09-12T10:51:49.551Z,1016.86
2018-09-12T10:52:49.469Z,1016.84
2018-09-12T10:53:49.462Z,1016.84
2018-09-12T10:54:49.462Z,1016.79
2018-09-12T10:55:49.341Z,1016.81
2018-09-12T10:56:49.344Z,1016.79
2018-09-12T10:57:49.341Z,1016.84
2018-09-12T10:58:49.225Z,1016.87
2018-09-12T10:59:49.223Z,1016.85
2018-09-12T11:00:49.219Z,1016.90
2018-09-12T11:01:49.101Z,1016.89
2018-09-12T11:02:49.102Z,1016.87
2018-09-12T11:03:49.101Z,1016.88
2018-09-12T11:04:48.995Z,1016.93
2018-09-12T11:05:48.981Z,1016.89
2018-09-12T11:06:48.980Z,1016.88
2018-09-12T11:07:48.863Z,1016.88
2018-09-12T11:08:48.867Z,1016.92
2018-09-12T11:09:48.935Z,1016.93
2018-09-12T11:10:48.862Z,1016.93
2018-09-12T11:11:48.740Z,1016.97
2018-09-12T11:12:48.742Z,1016.97
2018-09-12T11:13:48.746Z,1017.01
2018-09-12T11:14:48.622Z,1017.04
2018-09-12T11:15:48.618Z,1017.01
2018-09-12T11:16:48.619Z,1017.06
2018-09-12T11:17:48.502Z,1017.01
2018-09-12T11:18:48.497Z,1017.03
2018-09-12T11:19:48.497Z,1017.00
2018-09-12T11:20:48.376Z,1017.03
2018-09-12T11:21:48.377Z,1017.02
2018-09-12T11:22:48.379Z,1017.05
2018-09-12T11:23:48.295Z,1017.10
2018-09-12T11:24:48.259Z,1017.13
2018-09-12T11:25:48.260Z,1017.08
2018-09-12T11:26:48.220Z,1017.15
2018-09-12T11:27:48.136Z,1017.14
2018-09-12T11:28:48.138Z,1017.13
2018-09-12T11:29:48.139Z,1017.14
2018-09-12T11:30:48.015Z,1017.13
2018-09-12T11:31:48.017Z,1017.16
2018-09-12T11:32:48.015Z,1017.12
2018-09-12T11:33:47.895Z,1017.12
2018-09-12T11:34:47.901Z,1017.09
2018-09-12T11:35:47.900Z,1017.10
2018-09-12T11:36:47.781Z,1017.07
2018-09-12T11:37:47.976Z,1017.10
2018-09-12T11:38:47.771Z,1017.09
2018-09-12T11:39:47.656Z,1017.07
2018-09-12T11:40:47.653Z,1017.10
2018-09-12T11:41:47.652Z,1017.08
2018-09-12T11:42:47.538Z,1017.13
2018-09-12T11:43:47.535Z,1017.10
2018-09-12T11:44:47.533Z,1017.14
2018-09-12T11:45:47.413Z,1017.17
2018-09-12T11:46:47.411Z,1017.23
2018-09-12T11:47:47.414Z,1017.29
2018-09-12T11:48:47.373Z,1017.32
2018-09-12T11:49:47.292Z,1017.29
2018-09-12T11:50:47.295Z,1017.33
2018-09-12T11:51:47.289Z,1017.34
2018-09-12T11:52:47.169Z,1017.36
2018-09-12T11:53:47.172Z,1017.35
2018-09-12T11:54:47.171Z,1017.39
2018-09-12T11:55:47.052Z,1017.39
2018-09-12T11:56:47.051Z,1017.46
2018-09-12T11:57:47.049Z,1017.42
2018-09-12T11:58:46.928Z,1017.42
2018-09-12T11:59:46.931Z,1017.43
2018-09-12T12:00:46.929Z,1017.47
2018-09-12T12:01:46.810Z,1017.43
2018-09-12T12:02:46.809Z,1017.37
2018-09-12T12:03:46.811Z,1017.45
2018-09-12T12:04:46.691Z,1017.44